Time;durP1;ratioP1;P1;durP2;ratioP2;P2;SDS_P1;SDS_P2;PMS_P1;PMS_P2;Temp;Humidity;BMP_temperature;BMP_pressure;BME280_temperature;BME280_humidity;BME280_pressure;Samples;Min_cycle;Max_cycle;Signal;HPM_P1;HPM_P2
2023/12/16 11:42:48;;;;;;;;;1.75;0.75;;;;;;;;5124690;27;1367430;-82
2023/12/16 11:45:32;;;;;;;;;0.33;0.33;;;;;;;;5130457;27;8816;-80
2023/12/16 11:47:58;;;;;;;;;0.00;0.00;;;;;;;;5140805;27;9267;-75
2023/12/16 11:50:23;;;;;;;;;1.00;1.00;;;;;;;;5149564;27;9399;-75
2023/12/16 11:52:48;;;;;;;;;1.75;0.75;;;;;;;;5149657;27;10371;-76
2023/12/16 11:55:14;;;;;;;;;0.50;0.50;;;;;;;;5148553;27;8778;-78
2023/12/16 11:57:42;;;;;;;;;0.00;0.00;;;;;;;;5149713;27;8908;-78
2023/12/16 12:00:07;;;;;;;;;2.00;0.50;;;;;;;;5130341;27;8838;-79
2023/12/16 12:02:33;;;;;;;;;0.25;0.25;;;;;;;;5147007;27;10280;-82
2023/12/16 12:05:00;;;;;;;;;0.00;0.00;;;;;;;;5149672;27;9507;-82
2023/12/16 12:07:25;;;;;;;;;0.00;0.00;;;;;;;;5129085;27;9570;-83
2023/12/16 12:09:50;;;;;;;;;1.00;1.00;;;;;;;;5149128;27;10665;-80
2023/12/16 12:12:16;;;;;;;;;1.00;1.00;;;;;;;;5132350;27;9546;-81
2023/12/16 12:14:45;;;;;;;;;1.00;1.00;;;;;;;;5111519;27;10615;-81
2023/12/16 12:17:10;;;;;;;;;0.00;0.00;;;;;;;;5086586;28;10669;-79
2023/12/16 12:19:35;;;;;;;;;0.00;0.00;;;;;;;;5087127;28;10770;-83
2023/12/16 12:22:01;;;;;;;;;0.00;0.00;;;;;;;;5069543;28;8817;-82
2023/12/16 12:24:26;;;;;;;;;1.50;1.50;;;;;;;;5086103;28;8946;-80
2023/12/16 12:26:51;;;;;;;;;1.00;0.50;;;;;;;;5085607;28;8789;-87
2023/12/16 12:29:17;;;;;;;;;0.50;0.25;;;;;;;;5088598;28;8789;-83
2023/12/16 12:31:43;;;;;;;;;41.00;37.00;;;;;;;;5087287;28;8781;-79
2023/12/16 12:34:10;;;;;;;;;1.75;1.00;;;;;;;;5087156;28;8782;-79
2023/12/16 12:36:35;;;;;;;;;1.00;1.00;;;;;;;;5085493;28;10764;-81
2023/12/16 12:39:01;;;;;;;;;0.75;0.75;;;;;;;;5086819;28;11073;-79
2023/12/16 12:41:26;;;;;;;;;1.50;0.50;;;;;;;;5086902;28;8911;-80
2023/12/16 12:43:51;;;;;;;;;2.00;1.00;;;;;;;;5087191;28;8819;-82
2023/12/16 12:46:17;;;;;;;;;1.00;0.75;;;;;;;;5066795;28;8856;-80
2023/12/16 12:48:52;;;;;;;;;0.00;0.00;;;;;;;;5064811;28;8812;-80
2023/12/16 12:51:18;;;;;;;;;1.00;0.50;;;;;;;;5066729;28;8810;-79
2023/12/16 12:53:43;;;;;;;;;1.00;1.00;;;;;;;;5054485;28;11038;-79
2023/12/16 12:56:08;;;;;;;;;1.50;1.50;;;;;;;;5043135;28;9634;-80
2023/12/16 12:58:34;;;;;;;;;1.00;1.00;;;;;;;;5052136;28;8892;-82
2023/12/16 13:01:00;;;;;;;;;2.25;1.00;;;;;;;;5053674;28;8803;-79
2023/12/16 13:03:26;;;;;;;;;1.00;1.00;;;;;;;;5053286;28;8780;-80
2023/12/16 13:05:51;;;;;;;;;0.25;0.25;;;;;;;;5057733;28;8821;-79
2023/12/16 13:08:17;;;;;;;;;1.00;1.00;;;;;;;;5072714;28;11310;-81
2023/12/16 13:10:44;;;;;;;;;1.00;1.00;;;;;;;;5073268;28;8782;-80
2023/12/16 13:13:10;;;;;;;;;1.00;1.00;;;;;;;;5073398;28;8782;-80
2023/12/16 13:15:35;;;;;;;;;1.00;1.00;;;;;;;;5071644;28;11428;-79
2023/12/16 13:18:00;;;;;;;;;3.75;1.25;;;;;;;;5073078;28;8822;-79
2023/12/16 13:20:27;;;;;;;;;2.75;2.00;;;;;;;;5072707;28;8834;-81
2023/12/16 13:22:52;;;;;;;;;1.25;1.00;;;;;;;;5073007;28;9615;-79
2023/12/16 13:25:17;;;;;;;;;0.25;0.00;;;;;;;;5072456;28;11285;-80
2023/12/16 13:27:43;;;;;;;;;1.00;0.00;;;;;;;;5074095;28;8832;-81
2023/12/16 13:30:09;;;;;;;;;1.00;1.00;;;;;;;;5072701;28;8790;-82
2023/12/16 13:32:36;;;;;;;;;1.25;1.25;;;;;;;;5072891;28;8870;-80
2023/12/16 13:35:01;;;;;;;;;2.00;1.00;;;;;;;;5072696;28;11369;-79
2023/12/16 13:37:26;;;;;;;;;1.00;1.00;;;;;;;;5071002;28;11324;-80
2023/12/16 13:39:52;;;;;;;;;2.75;1.00;;;;;;;;5050689;28;9545;-78
2023/12/16 13:42:17;;;;;;;;;2.75;2.00;;;;;;;;5052411;28;8909;-79
2023/12/16 13:44:42;;;;;;;;;1.25;1.00;;;;;;;;5052544;28;8800;-77
2023/12/16 13:47:08;;;;;;;;;2.00;2.00;;;;;;;;5067270;28;9535;-77
2023/12/16 13:49:33;;;;;;;;;2.75;1.00;;;;;;;;5071844;28;9542;-77
2023/12/16 13:51:58;;;;;;;;;2.75;2.00;;;;;;;;5054415;28;8805;-79
2023/12/16 13:54:23;;;;;;;;;1.00;1.00;;;;;;;;5071908;28;8881;-78
2023/12/16 13:56:49;;;;;;;;;3.75;1.75;;;;;;;;5072054;28;8922;-77
2023/12/16 13:59:14;;;;;;;;;3.00;2.25;;;;;;;;5071913;28;8786;-77
2023/12/16 14:01:40;;;;;;;;;1.75;1.75;;;;;;;;5072075;28;8915;-77
2023/12/16 14:04:05;;;;;;;;;3.00;2.00;;;;;;;;5052793;28;11358;-77
2023/12/16 14:06:30;;;;;;;;;3.00;2.75;;;;;;;;5071392;28;8806;-81
2023/12/16 14:08:56;;;;;;;;;5.00;3.00;;;;;;;;5072035;28;8825;-80
2023/12/16 14:11:21;;;;;;;;;4.00;2.00;;;;;;;;5072044;28;8793;-78
2023/12/16 14:13:46;;;;;;;;;3.25;2.25;;;;;;;;5072006;28;8777;-77
2023/12/16 14:16:11;;;;;;;;;3.00;2.00;;;;;;;;5057046;28;8809;-79
2023/12/16 14:18:37;;;;;;;;;3.00;3.00;;;;;;;;5072489;28;8832;-77
2023/12/16 14:21:02;;;;;;;;;2.25;2.25;;;;;;;;5070488;28;8813;-77
2023/12/16 14:23:27;;;;;;;;;3.25;2.25;;;;;;;;5069987;28;8802;-77
2023/12/16 14:25:53;;;;;;;;;3.00;3.00;;;;;;;;5071181;28;8813;-77
2023/12/16 14:28:18;;;;;;;;;3.00;3.00;;;;;;;;5073779;28;8822;-78
2023/12/16 14:30:43;;;;;;;;;3.00;3.00;;;;;;;;5050125;28;8822;-77
2023/12/16 14:33:09;;;;;;;;;2.00;2.00;;;;;;;;5051090;28;8860;-77
2023/12/16 14:35:34;;;;;;;;;3.00;3.00;;;;;;;;5031597;28;8822;-86
2023/12/16 14:38:00;;;;;;;;;2.50;2.00;;;;;;;;5049746;28;11332;-79
2023/12/16 14:40:25;;;;;;;;;3.00;2.50;;;;;;;;5051311;28;9213;-80
2023/12/16 14:42:50;;;;;;;;;5.50;3.00;;;;;;;;5052102;28;8942;-82
2023/12/16 14:45:16;;;;;;;;;2.75;2.75;;;;;;;;5055774;28;8910;-79
2023/12/16 14:47:41;;;;;;;;;2.50;2.00;;;;;;;;5082906;28;8811;-77
2023/12/16 14:50:07;;;;;;;;;2.75;1.75;;;;;;;;5061436;28;8795;-77
2023/12/16 14:52:32;;;;;;;;;2.75;2.00;;;;;;;;5079680;28;8791;-76
2023/12/16 14:54:58;;;;;;;;;2.00;2.00;;;;;;;;5079465;28;8850;-78
2023/12/16 14:57:23;;;;;;;;;2.50;1.75;;;;;;;;5035283;28;10527;-77
2023/12/16 14:59:49;;;;;;;;;5.00;3.00;;;;;;;;4972536;28;11446;-78
2023/12/16 15:02:14;;;;;;;;;6.00;3.75;;;;;;;;5043409;28;8842;-77
2023/12/16 15:04:39;;;;;;;;;2.00;2.00;;;;;;;;5042165;28;8865;-77
2023/12/16 15:07:06;;;;;;;;;7.00;4.00;;;;;;;;5050835;28;8796;-79
